Observation data for Denver City on 07/11/2018      Previous  Date       Current Mesonet Observations  Soil Data  Daily Summary Page  Observations in Plain Language
KDVS 110505Z 19004KT 21/17 A3016 RMK A01 T02070168  RH  082%=      5-min Rain = 0
KDVS 110510Z 19004KT 21/17 A3016 RMK A01 T02080168  RH  082%=      5-min Rain = 0
KDVS 110515Z 19004KT 21/17 A3016 RMK A01 T02080168  RH  082%=      5-min Rain = 0
KDVS 110520Z 19004KT 21/17 A3016 RMK A01 T02080169  RH  082%=      5-min Rain = 0
KDVS 110525Z 19003KT 21/17 A3016 RMK A01 T02080169  RH  082%=      5-min Rain = 0
KDVS 110530Z 19002KT 21/17 A3017 RMK A01 T02080170  RH  083%=      5-min Rain = 0
KDVS 110535Z 11001KT 21/17 A3017 RMK A01 T02070171  RH  084%=      5-min Rain = 0
KDVS 110540Z 09001KT 20/17 A3017 RMK A01 T02040171  RH  086%=      5-min Rain = 0
KDVS 110545Z 05002KT 20/17 A3017 RMK A01 T02020172  RH  087%=      5-min Rain = 0
KDVS 110550Z 05002KT 20/17 A3017 RMK A01 T02020173  RH  087%=      5-min Rain = 0
KDVS 110555Z 09002KT 20/17 A3017 RMK A01 T02030173  RH  087%=      5-min Rain = 0
KDVS 110600Z 11002KT 20/17 A3017 RMK A01 T02030173  RH  087%=      5-min Rain = 0
KDVS 110605Z 12002KT 20/17 A3017 RMK A01 T02040174  RH  087%=      5-min Rain = 0
KDVS 110610Z 13003KT 21/17 A3017 RMK A01 T02050174  RH  087%=      5-min Rain = 0
KDVS 110615Z 14003KT 21/17 A3017 RMK A01 T02050174  RH  087%=      5-min Rain = 0
KDVS 110620Z 14004KT 20/17 A3017 RMK A01 T02040173  RH  087%=      5-min Rain = 0
KDVS 110625Z 14003KT 20/17 A3017 RMK A01 T02040173  RH  087%=      5-min Rain = 0
KDVS 110630Z 14003KT 20/17 A3017 RMK A01 T02030172  RH  087%=      5-min Rain = 0
KDVS 110635Z 14003KT 20/17 A3017 RMK A01 T02030172  RH  086%=      5-min Rain = 0
KDVS 110640Z 14003KT 20/17 A3017 RMK A01 T02040172  RH  086%=      5-min Rain = 0
KDVS 110645Z 14003KT 21/17 A3017 RMK A01 T02060172  RH  085%=      5-min Rain = 0
KDVS 110650Z 14003KT 21/17 A3017 RMK A01 T02060172  RH  085%=      5-min Rain = 0
KDVS 110655Z 14003KT 21/17 A3017 RMK A01 T02060173  RH  086%=      5-min Rain = 0
KDVS 110700Z 15003KT 21/17 A3017 RMK A01 T02060173  RH  086%=      5-min Rain = 0
KDVS 110705Z 15002KT 21/17 A3017 RMK A01 T02060173  RH  086%=      5-min Rain = 0
KDVS 110710Z 14002KT 21/17 A3017 RMK A01 T02060173  RH  085%=      5-min Rain = 0
KDVS 110715Z 14002KT 21/17 A3016 RMK A01 T02070173  RH  085%=      5-min Rain = 0
KDVS 110720Z 13001KT 21/17 A3016 RMK A01 T02080174  RH  085%=      5-min Rain = 0
KDVS 110725Z 13002KT 21/17 A3016 RMK A01 T02080174  RH  085%=      5-min Rain = 0
KDVS 110730Z 13003KT 21/18 A3016 RMK A01 T02080175  RH  085%=      5-min Rain = 0
KDVS 110735Z 15005KT 21/17 A3016 RMK A01 T02080173  RH  084%=      5-min Rain = 0
KDVS 110740Z 15005KT 21/17 A3016 RMK A01 T02080172  RH  084%=      5-min Rain = 0
KDVS 110745Z 15006KT 21/17 A3016 RMK A01 T02090172  RH  084%=      5-min Rain = 0
KDVS 110750Z 16006KT 21/17 A3016 RMK A01 T02090169  RH  082%=      5-min Rain = 0
KDVS 110755Z 16006KT 21/17 A3015 RMK A01 T02090166  RH  080%=      5-min Rain = 0
KDVS 110800Z 16006KT 21/17 A3015 RMK A01 T02090166  RH  080%=      5-min Rain = 0
KDVS 110805Z 16007KT 21/17 A3015 RMK A01 T02080166  RH  081%=      5-min Rain = 0
KDVS 110810Z 16007KT 21/17 A3015 RMK A01 T02070167  RH  082%=      5-min Rain = 0
KDVS 110815Z 17007KT 21/17 A3015 RMK A01 T02070165  RH  081%=      5-min Rain = 0
KDVS 110820Z 16007KT 21/16 A3015 RMK A01 T02060164  RH  080%=      5-min Rain = 0
KDVS 110825Z 16006KT 21/16 A3015 RMK A01 T02050163  RH  081%=      5-min Rain = 0
KDVS 110830Z 16006KT 20/16 A3015 RMK A01 T02040163  RH  081%=      5-min Rain = 0
KDVS 110835Z 16006KT 20/16 A3015 RMK A01 T02030162  RH  081%=      5-min Rain = 0
KDVS 110840Z 16006KT 20/16 A3015 RMK A01 T02030160  RH  080%=      5-min Rain = 0
KDVS 110845Z 16006KT 20/16 A3015 RMK A01 T02030159  RH  080%=      5-min Rain = 0
KDVS 110850Z 16006KT 20/16 A3015 RMK A01 T02020159  RH  080%=      5-min Rain = 0
KDVS 110855Z 16006KT 20/16 A3015 RMK A01 T02010158  RH  080%=      5-min Rain = 0
KDVS 110900Z 16006KT 20/16 A3014 RMK A01 T02000157  RH  080%=      5-min Rain = 0
KDVS 110905Z 16005KT 20/16 A3014 RMK A01 T01990156  RH  080%=      5-min Rain = 0
KDVS 110910Z 16005KT 20/16 A3014 RMK A01 T01980156  RH  081%=      5-min Rain = 0
KDVS 110915Z 16005KT 20/16 A3014 RMK A01 T01960156  RH  081%=      5-min Rain = 0
KDVS 110920Z 16004KT 20/16 A3014 RMK A01 T01950155  RH  082%=      5-min Rain = 0
KDVS 110925Z 16004KT 19/16 A3014 RMK A01 T01940155  RH  082%=      5-min Rain = 0
KDVS 110930Z 15003KT 19/15 A3014 RMK A01 T01930154  RH  082%=      5-min Rain = 0
KDVS 110935Z 16003KT 19/15 A3014 RMK A01 T01930154  RH  082%=      5-min Rain = 0
KDVS 110940Z 15003KT 19/15 A3014 RMK A01 T01930153  RH  081%=      5-min Rain = 0
KDVS 110945Z 15003KT 19/15 A3014 RMK A01 T01930152  RH  080%=      5-min Rain = 0
KDVS 110950Z 14003KT 19/15 A3014 RMK A01 T01940150  RH  080%=      5-min Rain = 0
KDVS 110955Z 14003KT 19/15 A3014 RMK A01 T01940151  RH  080%=      5-min Rain = 0
KDVS 111000Z 14003KT 19/15 A3014 RMK A01 T01930150  RH  080%=      5-min Rain = 0
KDVS 111005Z 14003KT 19/15 A3014 RMK A01 T01920150  RH  080%=      5-min Rain = 0
KDVS 111010Z 13003KT 19/15 A3014 RMK A01 T01910150  RH  080%=      5-min Rain = 0
KDVS 111015Z 13003KT 19/15 A3014 RMK A01 T01910149  RH  080%=      5-min Rain = 0
KDVS 111020Z 13002KT 19/15 A3014 RMK A01 T01910149  RH  080%=      5-min Rain = 0
KDVS 111025Z 13003KT 19/15 A3014 RMK A01 T01910147  RH  079%=      5-min Rain = 0
KDVS 111030Z 13003KT 19/15 A3014 RMK A01 T01910147  RH  079%=      5-min Rain = 0
KDVS 111035Z 12003KT 19/15 A3014 RMK A01 T01910147  RH  079%=      5-min Rain = 0
KDVS 111040Z 13003KT 19/15 A3014 RMK A01 T01900147  RH  080%=      5-min Rain = 0
KDVS 111045Z 13003KT 19/15 A3014 RMK A01 T01890147  RH  080%=      5-min Rain = 0
KDVS 111050Z 12003KT 19/15 A3014 RMK A01 T01880147  RH  080%=      5-min Rain = 0
KDVS 111055Z 12003KT 19/15 A3015 RMK A01 T01880146  RH  080%=      5-min Rain = 0
KDVS 111100Z 13003KT 19/15 A3015 RMK A01 T01890145  RH  079%=      5-min Rain = 0
KDVS 111105Z 13003KT 19/15 A3015 RMK A01 T01890145  RH  079%=      5-min Rain = 0
KDVS 111110Z 13002KT 19/14 A3015 RMK A01 T01890144  RH  078%=      5-min Rain = 0
KDVS 111115Z 12002KT 19/14 A3015 RMK A01 T01900143  RH  078%=      5-min Rain = 0
KDVS 111120Z 13002KT 19/14 A3015 RMK A01 T01900142  RH  077%=      5-min Rain = 0
KDVS 111125Z 14003KT 19/14 A3015 RMK A01 T01910140  RH  075%=      5-min Rain = 0
KDVS 111130Z 15003KT 19/14 A3015 RMK A01 T01920139  RH  075%=      5-min Rain = 0
KDVS 111135Z 14003KT 19/14 A3015 RMK A01 T01910140  RH  075%=      5-min Rain = 0
KDVS 111140Z 13003KT 19/14 A3015 RMK A01 T01890142  RH  077%=      5-min Rain = 0
KDVS 111145Z 13003KT 19/15 A3015 RMK A01 T01880145  RH  080%=      5-min Rain = 0
KDVS 111150Z 12003KT 19/15 A3015 RMK A01 T01870145  RH  080%=      5-min Rain = 0
KDVS 111155Z 12003KT 19/14 A3016 RMK A01 T01870144  RH  079%=      5-min Rain = 0
KDVS 111200Z 12003KT 19/14 A3016 RMK A01 T01870144  RH  080%=      5-min Rain = 0
KDVS 111205Z 12003KT 19/14 A3016 RMK A01 T01870144  RH  079%=      5-min Rain = 0
KDVS 111210Z 12003KT 19/14 A3016 RMK A01 T01880143  RH  079%=      5-min Rain = 0
KDVS 111215Z 11004KT 19/14 A3016 RMK A01 T01890144  RH  079%=      5-min Rain = 0
KDVS 111220Z 11005KT 19/15 A3016 RMK A01 T01880147  RH  080%=      5-min Rain = 0
KDVS 111225Z 10006KT 19/15 A3016 RMK A01 T01860148  RH  082%=      5-min Rain = 0
KDVS 111230Z 10005KT 18/15 A3016 RMK A01 T01840147  RH  082%=      5-min Rain = 0
KDVS 111235Z 10005KT 19/15 A3016 RMK A01 T01850148  RH  083%=      5-min Rain = 0
KDVS 111240Z 11005KT 19/15 A3016 RMK A01 T01870149  RH  082%=      5-min Rain = 0
KDVS 111245Z 12005KT 19/15 A3016 RMK A01 T01910150  RH  081%=      5-min Rain = 0
KDVS 111250Z 12005KT 20/15 A3016 RMK A01 T01960151  RH  078%=      5-min Rain = 0
KDVS 111255Z 13005KT 20/15 A3016 RMK A01 T02020151  RH  076%=      5-min Rain = 0
KDVS 111300Z 14007KT 21/15 A3016 RMK A01 T02060148  RH  072%=      5-min Rain = 0
KDVS 111305Z 14007KT 21/15 A3016 RMK A01 T02100147  RH  070%=      5-min Rain = 0
KDVS 111310Z 14009KT 21/15 A3016 RMK A01 T02130146  RH  068%=      5-min Rain = 0
KDVS 111315Z 15008KT 22/15 A3016 RMK A01 T02150146  RH  067%=      5-min Rain = 0
KDVS 111320Z 15008KT 22/15 A3016 RMK A01 T02180147  RH  067%=      5-min Rain = 0
KDVS 111325Z 15010KT 22/14 A3016 RMK A01 T02200144  RH  065%=      5-min Rain = 0
KDVS 111330Z 16011KT 22/14 A3016 RMK A01 T02200144  RH  065%=      5-min Rain = 0
KDVS 111335Z 16011KT 22/14 A3016 RMK A01 T02220144  RH  064%=      5-min Rain = 0
KDVS 111340Z 16012KT 22/14 A3016 RMK A01 T02200143  RH  064%=      5-min Rain = 0
KDVS 111345Z 16010KT 22/14 A3016 RMK A01 T02170144  RH  066%=      5-min Rain = 0
KDVS 111350Z 16010KT 22/15 A3017 RMK A01 T02160145  RH  066%=      5-min Rain = 0
KDVS 111355Z 16010KT 22/15 A3017 RMK A01 T02180145  RH  066%=      5-min Rain = 0
KDVS 111400Z 17011KT 22/15 A3017 RMK A01 T02240145  RH  063%=      5-min Rain = 0
KDVS 111405Z 17010KT 22/15 A3017 RMK A01 T02240146  RH  064%=      5-min Rain = 0
KDVS 111410Z 16010KT 23/14 A3017 RMK A01 T02250144  RH  063%=      5-min Rain = 0
KDVS 111415Z 16012KT 23/14 A3017 RMK A01 T02290143  RH  061%=      5-min Rain = 0
KDVS 111420Z 17011KT 23/14 A3017 RMK A01 T02300144  RH  061%=      5-min Rain = 0
KDVS 111425Z 18010KT 23/15 A3017 RMK A01 T02330145  RH  060%=      5-min Rain = 0
KDVS 111430Z 17010KT 24/15 A3017 RMK A01 T02350145  RH  060%=      5-min Rain = 0
KDVS 111435Z 18010KT 24/14 A3017 RMK A01 T02370144  RH  058%=      5-min Rain = 0
KDVS 111440Z 17010KT 24/14 A3017 RMK A01 T02400144  RH  057%=      5-min Rain = 0
KDVS 111445Z 18009KT 24/15 A3017 RMK A01 T02430145  RH  057%=      5-min Rain = 0
KDVS 111450Z 17010KT 25/14 A3017 RMK A01 T02450144  RH  056%=      5-min Rain = 0
KDVS 111455Z 17009KT 25/15 A3017 RMK A01 T02460146  RH  056%=      5-min Rain = 0
KDVS 111500Z 18009KT 25/15 A3017 RMK A01 T02470145  RH  055%=      5-min Rain = 0
KDVS 111505Z 18009KT 25/15 A3017 RMK A01 T02480146  RH  056%=      5-min Rain = 0
KDVS 111510Z 18008KT 25/15 A3017 RMK A01 T02500148  RH  056%=      5-min Rain = 0
KDVS 111515Z 18009KT 25/15 A3017 RMK A01 T02540149  RH  054%=      5-min Rain = 0
KDVS 111520Z 19009KT 25/15 A3017 RMK A01 T02520148  RH  055%=      5-min Rain = 0
KDVS 111525Z 18010KT 25/15 A3017 RMK A01 T02520147  RH  055%=      5-min Rain = 0
KDVS 111530Z 18010KT 25/15 A3017 RMK A01 T02520147  RH  054%=      5-min Rain = 0
KDVS 111535Z 19009KT 26/15 A3017 RMK A01 T02570147  RH  053%=      5-min Rain = 0
KDVS 111540Z 17010KT 26/15 A3017 RMK A01 T02580146  RH  052%=      5-min Rain = 0
KDVS 111545Z 17009KT 26/14 A3016 RMK A01 T02570144  RH  052%=      5-min Rain = 0
KDVS 111550Z 18007KT 26/15 A3016 RMK A01 T02620147  RH  051%=      5-min Rain = 0
KDVS 111555Z 19008KT 26/15 A3016 RMK A01 T02620145  RH  051%=      5-min Rain = 0
KDVS 111600Z 18008KT 26/14 A3016 RMK A01 T02600144  RH  051%=      5-min Rain = 0
KDVS 111605Z 20008KT 26/14 A3016 RMK A01 T02600142  RH  050%=      5-min Rain = 0
KDVS 111610Z 19009KT 26/14 A3016 RMK A01 T02610140  RH  049%=      5-min Rain = 0
KDVS 111615Z 19008G13KT 26/14 A3016 RMK A01 T02610143  RH  050%=      5-min Rain = 0
KDVS 111620Z 18007KT 27/15 A3016 RMK A01 T02650151  RH  052%=      5-min Rain = 0
KDVS 111625Z 18008KT 27/15 A3016 RMK A01 T02660147  RH  050%=      5-min Rain = 0
KDVS 111630Z 17007KT 27/15 A3016 RMK A01 T02650147  RH  050%=      5-min Rain = 0
KDVS 111635Z 16010KT 27/14 A3016 RMK A01 T02650143  RH  049%=      5-min Rain = 0
KDVS 111640Z 17010KT 27/14 A3016 RMK A01 T02650144  RH  049%=      5-min Rain = 0
KDVS 111645Z 15010KT 27/14 A3016 RMK A01 T02670143  RH  049%=      5-min Rain = 0
KDVS 111650Z 17010KT 27/14 A3016 RMK A01 T02680141  RH  048%=      5-min Rain = 0
KDVS 111655Z 16009KT 27/14 A3016 RMK A01 T02700144  RH  048%=      5-min Rain = 0
KDVS 111700Z 17006KT 27/15 A3016 RMK A01 T02740147  RH  048%=      5-min Rain = 0
KDVS 111705Z 16007KT 28/14 A3016 RMK A01 T02750142  RH  046%=      5-min Rain = 0
KDVS 111710Z 18009KT 27/14 A3015 RMK A01 T02740142  RH  046%=      5-min Rain = 0
KDVS 111715Z 18008KT 28/14 A3015 RMK A01 T02750140  RH  046%=      5-min Rain = 0
KDVS 111720Z 18010KT 28/14 A3015 RMK A01 T02790139  RH  044%=      5-min Rain = 0
KDVS 111725Z 16009G14KT 28/14 A3015 RMK A01 T02820135  RH  042%=      5-min Rain = 0
KDVS 111730Z 17009G14KT 29/14 A3015 RMK A01 T02860139  RH  042%=      5-min Rain = 0
KDVS 111735Z 17012KT 29/14 A3015 RMK A01 T02880138  RH  041%=      5-min Rain = 0
KDVS 111740Z 18011KT 29/14 A3015 RMK A01 T02870141  RH  043%=      5-min Rain = 0
KDVS 111745Z 16010G15KT 29/14 A3015 RMK A01 T02900139  RH  041%=      5-min Rain = 0
KDVS 111750Z 16011KT 29/14 A3015 RMK A01 T02940139  RH  040%=      5-min Rain = 0
KDVS 111755Z 17011G16KT 29/14 A3015 RMK A01 T02940139  RH  040%=      5-min Rain = 0
KDVS 111800Z 17012KT 29/13 A3014 RMK A01 T02910133  RH  039%=      5-min Rain = 0
KDVS 111805Z 16010G17KT 29/14 A3014 RMK A01 T02930137  RH  040%=      5-min Rain = 0
KDVS 111810Z 17011G17KT 29/13 A3014 RMK A01 T02940134  RH  039%=      5-min Rain = 0
KDVS 111815Z 16012G19KT 29/14 A3014 RMK A01 T02930136  RH  040%=      5-min Rain = 0
KDVS 111820Z 16011G17KT 30/13 A3014 RMK A01 T02960131  RH  038%=      5-min Rain = 0
KDVS 111825Z 16010G18KT 30/13 A3013 RMK A01 T02970133  RH  038%=      5-min Rain = 0
KDVS 111830Z 15012KT 30/14 A3013 RMK A01 T02990136  RH  038%=      5-min Rain = 0
KDVS 111835Z 18013KT 30/14 A3013 RMK A01 T03000136  RH  038%=      5-min Rain = 0
KDVS 111840Z 19012KT 30/13 A3012 RMK A01 T03000131  RH  037%=      5-min Rain = 0
KDVS 111845Z 17014G19KT 30/13 A3012 RMK A01 T02990129  RH  037%=      5-min Rain = 0
KDVS 111850Z 15012KT 30/13 A3012 RMK A01 T03020129  RH  036%=      5-min Rain = 0
KDVS 111855Z 15010G15KT 30/13 A3012 RMK A01 T02990130  RH  037%=      5-min Rain = 0
KDVS 111900Z 18010G15KT 30/13 A3012 RMK A01 T03010132  RH  037%=      5-min Rain = 0
KDVS 111905Z 18012G18KT 30/13 A3012 RMK A01 T03030132  RH  037%=      5-min Rain = 0
KDVS 111910Z 18012G17KT 30/13 A3012 RMK A01 T03010126  RH  036%=      5-min Rain = 0
KDVS 111915Z 17011G16KT 30/13 A3012 RMK A01 T03000126  RH  036%=      5-min Rain = 0
KDVS 111920Z 19010KT 30/13 A3011 RMK A01 T03010130  RH  037%=      5-min Rain = 0
KDVS 111925Z 18011G16KT 30/13 A3011 RMK A01 T03030132  RH  037%=      5-min Rain = 0
KDVS 111930Z 16010G16KT 31/13 A3011 RMK A01 T03070134  RH  036%=      5-min Rain = 0
KDVS 111935Z 16010KT 31/13 A3011 RMK A01 T03070129  RH  035%=      5-min Rain = 0
KDVS 111940Z 17012G17KT 31/13 A3011 RMK A01 T03090128  RH  034%=      5-min Rain = 0
KDVS 111945Z 17011G16KT 31/13 A3011 RMK A01 T03050129  RH  035%=      5-min Rain = 0
KDVS 111950Z 16013G18KT 30/13 A301 RMK A01 T03020129  RH  036%=      5-min Rain = 0
KDVS 111955Z 16011G16KT 30/13 A301 RMK A01 T02990127  RH  036%=      5-min Rain = 0
KDVS 112000Z 18012KT 30/13 A301 RMK A01 T03020130  RH  036%=      5-min Rain = 0
KDVS 112005Z 16012KT 31/13 A301 RMK A01 T03060129  RH  035%=      5-min Rain = 0
KDVS 112010Z 17013G18KT 31/13 A3009 RMK A01 T03090128  RH  034%=      5-min Rain = 0
KDVS 112015Z 17013KT 31/13 A3009 RMK A01 T03080127  RH  034%=      5-min Rain = 0
KDVS 112020Z 17014G20KT 31/13 A3009 RMK A01 T03120127  RH  034%=      5-min Rain = 0
KDVS 112025Z 16012G17KT 31/12 A3009 RMK A01 T03100123  RH  033%=      5-min Rain = 0
KDVS 112030Z 16012G20KT 31/12 A3009 RMK A01 T03060124  RH  034%=      5-min Rain = 0
KDVS 112035Z 18011KT 31/12 A3008 RMK A01 T03060124  RH  034%=      5-min Rain = 0
KDVS 112040Z 16012KT 31/12 A3008 RMK A01 T03080118  RH  032%=      5-min Rain = 0
KDVS 112045Z 16012KT 31/13 A3008 RMK A01 T03130127  RH  033%=      5-min Rain = 0
KDVS 112050Z 17014G20KT 32/13 A3007 RMK A01 T03150128  RH  033%=      5-min Rain = 0
KDVS 112055Z 16014KT 32/13 A3007 RMK A01 T03150127  RH  033%=      5-min Rain = 0
KDVS 112100Z 16014G19KT 31/12 A3007 RMK A01 T03070124  RH  034%=      5-min Rain = 0
KDVS 112105Z 14011G17KT 30/13 A3007 RMK A01 T03040127  RH  035%=      5-min Rain = 0
KDVS 112110Z 16012G18KT 31/13 A3007 RMK A01 T03100126  RH  034%=      5-min Rain = 0
KDVS 112115Z 16013G18KT 30/12 A3007 RMK A01 T03030123  RH  034%=      5-min Rain = 0
KDVS 112120Z 16013KT 30/12 A3007 RMK A01 T03000124  RH  035%=      5-min Rain = 0
KDVS 112125Z 17013G18KT 30/13 A3006 RMK A01 T03000125  RH  035%=      5-min Rain = 0
KDVS 112130Z 17011KT 30/13 A3006 RMK A01 T03000125  RH  036%=      5-min Rain = 0
KDVS 112135Z 16013G19KT 30/13 A3006 RMK A01 T03010128  RH  036%=      5-min Rain = 0
KDVS 112140Z 17012KT 31/12 A3006 RMK A01 T03080124  RH  034%=      5-min Rain = 0
KDVS 112145Z 18011G17KT 31/13 A3006 RMK A01 T03080130  RH  035%=      5-min Rain = 0
KDVS 112150Z 19014KT 31/12 A3005 RMK A01 T03130123  RH  033%=      5-min Rain = 0
KDVS 112155Z 18012G17KT 32/12 A3005 RMK A01 T03150123  RH  032%=      5-min Rain = 0
KDVS 112200Z 20015KT 31/12 A3005 RMK A01 T03140119  RH  031%=      5-min Rain = 0
KDVS 112205Z 19012KT 31/12 A3005 RMK A01 T03120119  RH  032%=      5-min Rain = 0
KDVS 112210Z 19014KT 31/12 A3005 RMK A01 T03130120  RH  032%=      5-min Rain = 0
KDVS 112215Z 19013KT 31/12 A3005 RMK A01 T03130121  RH  032%=      5-min Rain = 0
KDVS 112220Z 18011KT 31/12 A3005 RMK A01 T03130121  RH  032%=      5-min Rain = 0
KDVS 112225Z 17011G17KT 31/12 A3004 RMK A01 T03120121  RH  032%=      5-min Rain = 0
KDVS 112230Z 18012G17KT 31/12 A3004 RMK A01 T03060124  RH  034%=      5-min Rain = 0
KDVS 112235Z 18013G18KT 31/12 A3004 RMK A01 T03110123  RH  033%=      5-min Rain = 0
KDVS 112240Z 16013KT 31/12 A3004 RMK A01 T03080119  RH  033%=      5-min Rain = 0
KDVS 112245Z 17012G18KT 31/12 A3004 RMK A01 T03050120  RH  033%=      5-min Rain = 0
KDVS 112250Z 16013KT 31/12 A3003 RMK A01 T03130123  RH  033%=      5-min Rain = 0
KDVS 112255Z 17014G19KT 31/12 A3003 RMK A01 T03140122  RH  032%=      5-min Rain = 0
KDVS 112300Z 16014KT 31/12 A3004 RMK A01 T03140122  RH  032%=      5-min Rain = 0
KDVS 112305Z 16014KT 31/12 A3004 RMK A01 T03140120  RH  032%=      5-min Rain = 0
KDVS 112310Z 16011KT 31/12 A3004 RMK A01 T03140123  RH  032%=      5-min Rain = 0
KDVS 112315Z 18009KT 31/12 A3004 RMK A01 T03120122  RH  033%=      5-min Rain = 0
KDVS 112320Z 17011KT 31/12 A3004 RMK A01 T03100123  RH  033%=      5-min Rain = 0
KDVS 112325Z 17014G19KT 31/12 A3003 RMK A01 T03110118  RH  032%=      5-min Rain = 0
KDVS 112330Z 16012G17KT 31/12 A3003 RMK A01 T03130119  RH  031%=      5-min Rain = 0
KDVS 112335Z 17012KT 31/12 A3003 RMK A01 T03120117  RH  031%=      5-min Rain = 0
KDVS 112340Z 18011KT 31/12 A3003 RMK A01 T03070119  RH  033%=      5-min Rain = 0
KDVS 112345Z 17012G17KT 30/12 A3003 RMK A01 T03030120  RH  034%=      5-min Rain = 0
KDVS 112350Z 17011KT 30/12 A3003 RMK A01 T03020122  RH  034%=      5-min Rain = 0
KDVS 112355Z 16011G16KT 30/12 A3003 RMK A01 T03020122  RH  034%=      5-min Rain = 0
KDVS 120000Z 15013G19KT 31/12 A3003 RMK A01 T03080120  RH  033%=      5-min Rain = 0
KDVS 120005Z 16013G19KT 31/12 A3003 RMK A01 T03060117  RH  033%=      5-min Rain = 0
KDVS 120010Z 16015G21KT 30/12 A3003 RMK A01 T03040117  RH  033%=      5-min Rain = 0
KDVS 120015Z 16011KT 30/12 A3004 RMK A01 T03010121  RH  034%=      5-min Rain = 0
KDVS 120020Z 16012KT 30/12 A3004 RMK A01 T02990118  RH  034%=      5-min Rain = 0
KDVS 120025Z 16011KT 30/12 A3004 RMK A01 T02980118  RH  034%=      5-min Rain = 0
KDVS 120030Z 16010KT 30/12 A3004 RMK A01 T02980121  RH  035%=      5-min Rain = 0
KDVS 120035Z 16011KT 30/12 A3004 RMK A01 T02960119  RH  035%=      5-min Rain = 0
KDVS 120040Z 16011KT 29/13 A3004 RMK A01 T02940127  RH  037%=      5-min Rain = 0
KDVS 120045Z 16009KT 28/15 A3005 RMK A01 T02800148  RH  047%=      5-min Rain = 0.01
KDVS 120050Z 15006KT 27/16 A3005 RMK A01 T02680155  RH  052%=      5-min Rain = 0
KDVS 120055Z 15007KT 26/15 A3005 RMK A01 T02640154  RH  053%=      5-min Rain = 0
KDVS 120100Z 16007KT 27/15 A3005 RMK A01 T02670148  RH  050%=      5-min Rain = 0
KDVS 120105Z 16006KT 27/15 A3005 RMK A01 T02700147  RH  049%=      5-min Rain = 0
KDVS 120110Z 17006KT 27/15 A3005 RMK A01 T02710153  RH  051%=      5-min Rain = 0
KDVS 120115Z 18006KT 27/16 A3005 RMK A01 T02700155  RH  052%=      5-min Rain = 0
KDVS 120120Z 18008KT 27/15 A3005 RMK A01 T02700152  RH  051%=      5-min Rain = 0
KDVS 120125Z 18008KT 27/15 A3005 RMK A01 T02700153  RH  051%=      5-min Rain = 0
KDVS 120130Z 18007KT 27/15 A3005 RMK A01 T02690152  RH  051%=      5-min Rain = 0
KDVS 120135Z 18007KT 27/15 A3005 RMK A01 T02670150  RH  051%=      5-min Rain = 0
KDVS 120140Z 18007KT 27/15 A3005 RMK A01 T02670147  RH  050%=      5-min Rain = 0
KDVS 120145Z 18008KT 27/14 A3005 RMK A01 T02680143  RH  048%=      5-min Rain = 0
KDVS 120150Z 18008KT 27/14 A3005 RMK A01 T02690141  RH  047%=      5-min Rain = 0
KDVS 120155Z 18009KT 27/14 A3005 RMK A01 T02680140  RH  047%=      5-min Rain = 0
KDVS 120200Z 18010KT 27/14 A3005 RMK A01 T02690136  RH  046%=      5-min Rain = 0
KDVS 120205Z 18009KT 27/14 A3005 RMK A01 T02690135  RH  046%=      5-min Rain = 0
KDVS 120210Z 18008KT 27/14 A3006 RMK A01 T02680137  RH  046%=      5-min Rain = 0
KDVS 120215Z 21009KT 27/14 A3006 RMK A01 T02660141  RH  048%=      5-min Rain = 0
KDVS 120220Z 24009KT 26/14 A3007 RMK A01 T02630136  RH  047%=      5-min Rain = 0
KDVS 120225Z 26009KT 26/14 A3007 RMK A01 T02590138  RH  049%=      5-min Rain = 0
KDVS 120230Z 25006G11KT 26/14 A3007 RMK A01 T02570141  RH  051%=      5-min Rain = 0
KDVS 120235Z 24006KT 25/14 A3007 RMK A01 T02540144  RH  053%=      5-min Rain = 0
KDVS 120240Z 26005KT 25/15 A3008 RMK A01 T02510149  RH  056%=      5-min Rain = 0
KDVS 120245Z 25003KT 25/15 A3008 RMK A01 T02490152  RH  057%=      5-min Rain = 0
KDVS 120250Z 25003KT 25/15 A3008 RMK A01 T02480152  RH  058%=      5-min Rain = 0
KDVS 120255Z 24003KT 25/15 A3008 RMK A01 T02480152  RH  058%=      5-min Rain = 0
KDVS 120300Z 24003KT 25/16 A3008 RMK A01 T02470155  RH  059%=      5-min Rain = 0
KDVS 120305Z 21002KT 24/16 A3009 RMK A01 T02440162  RH  063%=      5-min Rain = 0
KDVS 120310Z 21002KT 24/16 A3009 RMK A01 T02400160  RH  064%=      5-min Rain = 0
KDVS 120315Z 22003KT 24/16 A3009 RMK A01 T02410163  RH  065%=      5-min Rain = 0
KDVS 120320Z 23002KT 24/17 A3009 RMK A01 T02410165  RH  066%=      5-min Rain = 0
KDVS 120325Z 25001KT 24/17 A301 RMK A01 T02410170  RH  068%=      5-min Rain = 0
KDVS 120330Z 27001KT 24/17 A301 RMK A01 T02400172  RH  069%=      5-min Rain = 0
KDVS 120335Z 28002KT 24/17 A301 RMK A01 T02370173  RH  071%=      5-min Rain = 0
KDVS 120340Z 26001KT 24/17 A301 RMK A01 T02380171  RH  070%=      5-min Rain = 0
KDVS 120345Z 21001KT 24/18 A301 RMK A01 T02380180  RH  074%=      5-min Rain = 0
KDVS 120350Z 21002KT 24/18 A301 RMK A01 T02350179  RH  074%=      5-min Rain = 0
KDVS 120355Z 18003KT 23/17 A3011 RMK A01 T02340171  RH  071%=      5-min Rain = 0
KDVS 120400Z 19005KT 24/16 A3011 RMK A01 T02390160  RH  064%=      5-min Rain = 0
KDVS 120405Z 18006KT 25/15 A3011 RMK A01 T02450151  RH  058%=      5-min Rain = 0
KDVS 120410Z 18007KT 25/15 A3011 RMK A01 T02480146  RH  056%=      5-min Rain = 0
KDVS 120415Z 18007KT 25/15 A3011 RMK A01 T02480146  RH  055%=      5-min Rain = 0
KDVS 120420Z 18007KT 25/15 A3011 RMK A01 T02470147  RH  056%=      5-min Rain = 0
KDVS 120425Z 18007KT 25/15 A3012 RMK A01 T02460147  RH  056%=      5-min Rain = 0
KDVS 120430Z 18006KT 25/15 A3012 RMK A01 T02450146  RH  057%=      5-min Rain = 0
KDVS 120435Z 18006KT 24/15 A3012 RMK A01 T02440146  RH  057%=      5-min Rain = 0
KDVS 120440Z 18006KT 24/15 A3012 RMK A01 T02440147  RH  057%=      5-min Rain = 0
KDVS 120445Z 18006KT 24/15 A3012 RMK A01 T02430148  RH  058%=      5-min Rain = 0
KDVS 120450Z 18006KT 24/15 A3012 RMK A01 T02420148  RH  058%=      5-min Rain = 0
KDVS 120455Z 18007KT 24/15 A3012 RMK A01 T02410147  RH  058%=      5-min Rain = 0
KDVS 120500Z 18007KT 24/15 A3012 RMK A01 T02400146  RH  058%=      5-min Rain = 0

Page generated in 0.0097 seconds.